Time;durP1;ratioP1;P1;durP2;ratioP2;P2;SDS_P1;SDS_P2;PMS_P1;PMS_P2;Temp;Humidity;BMP_temperature;BMP_pressure;BME280_temperature;BME280_humidity;BME280_pressure;Samples;Min_cycle;Max_cycle;Signal;HPM_P1;HPM_P2
2021/08/15 00:00:23;;;;;;;13.97;11.20;;;;;;;21.29;100.00;98292.78;5073006;28;20215;-66
2021/08/15 00:02:49;;;;;;;11.90;10.70;;;;;;;21.17;100.00;98295.00;5072901;28;20211;-66
2021/08/15 00:05:16;;;;;;;12.73;11.40;;;;;;;21.05;100.00;98284.72;5072746;28;20207;-66
2021/08/15 00:07:44;;;;;;;12.20;10.90;;;;;;;20.91;100.00;98286.22;5072519;28;20222;-66
2021/08/15 00:10:11;;;;;;;12.33;10.97;;;;;;;20.80;100.00;98281.13;5072783;28;20323;-65
2021/08/15 00:12:39;;;;;;;12.87;11.50;;;;;;;20.73;100.00;98280.13;5072815;28;20222;-65
2021/08/15 00:15:07;;;;;;;13.83;11.50;;;;;;;20.65;100.00;98277.44;5072861;28;20211;-65
2021/08/15 00:17:33;;;;;;;12.17;10.87;;;;;;;20.61;100.00;98276.06;5072493;28;20215;-66
2021/08/15 00:20:00;;;;;;;12.27;11.07;;;;;;;20.52;100.00;98277.06;5072839;28;20214;-66
2021/08/15 00:22:27;;;;;;;12.13;10.90;;;;;;;20.44;100.00;98273.53;5071089;28;20219;-66
2021/08/15 00:24:54;;;;;;;12.77;11.40;;;;;;;20.36;100.00;98277.03;5072647;28;20235;-65
2021/08/15 00:27:21;;;;;;;13.10;11.77;;;;;;;20.25;100.00;98271.13;5072611;28;20310;-65
2021/08/15 00:29:47;;;;;;;12.43;11.13;;;;;;;20.19;100.00;98274.44;5072490;28;20235;-65
2021/08/15 00:32:14;;;;;;;13.40;12.00;;;;;;;20.16;100.00;98270.25;5072261;28;20219;-65
2021/08/15 00:34:40;;;;;;;14.00;12.60;;;;;;;20.13;100.00;98264.38;5072313;28;20235;-65
2021/08/15 00:37:07;;;;;;;14.33;12.80;;;;;;;20.09;100.00;98263.84;5075430;28;20238;-65
2021/08/15 00:39:34;;;;;;;14.70;12.43;;;;;;;20.08;100.00;98259.50;5076292;28;20210;-65
2021/08/15 00:42:02;;;;;;;14.03;12.63;;;;;;;20.09;100.00;98255.81;5075951;28;20214;-65
2021/08/15 00:44:28;;;;;;;15.03;13.53;;;;;;;20.09;100.00;98258.47;5076249;28;20207;-65
2021/08/15 00:46:56;;;;;;;14.50;13.00;;;;;;;20.08;100.00;98248.75;5076251;28;20218;-65
2021/08/15 00:49:22;;;;;;;14.20;12.80;;;;;;;20.07;100.00;98255.13;5074449;28;20231;-66
2021/08/15 00:51:49;;;;;;;14.30;12.80;;;;;;;20.04;100.00;98250.03;5076045;28;20673;-66
2021/08/15 00:54:15;;;;;;;13.63;12.27;;;;;;;20.01;100.00;98244.16;5075738;28;20673;-66
2021/08/15 00:56:42;;;;;;;14.43;12.90;;;;;;;19.96;100.00;98241.97;5076153;28;20211;-65
2021/08/15 00:59:10;;;;;;;15.07;12.70;;;;;;;19.93;100.00;98244.13;5075834;28;20211;-65
2021/08/15 01:01:36;;;;;;;14.67;13.17;;;;;;;19.88;100.00;98239.22;5064271;28;20220;-65
2021/08/15 01:04:04;;;;;;;14.27;12.87;;;;;;;19.85;100.00;98236.88;5070946;28;20214;-65
2021/08/15 01:06:33;;;;;;;14.63;13.13;;;;;;;19.84;100.00;98240.56;5059376;28;20222;-65
2021/08/15 01:09:00;;;;;;;14.27;12.87;;;;;;;19.82;100.00;98234.50;5068256;28;20239;-65
2021/08/15 01:11:27;;;;;;;14.40;12.90;;;;;;;19.77;100.00;98236.84;5067036;28;20215;-65
2021/08/15 01:13:54;;;;;;;14.70;13.20;;;;;;;19.75;100.00;98232.66;5073855;28;20211;-65
2021/08/15 01:16:22;;;;;;;14.37;12.63;;;;;;;19.74;100.00;98231.81;5075702;28;20207;-65
2021/08/15 01:18:48;;;;;;;13.87;12.47;;;;;;;19.74;100.00;98226.44;5075714;28;20203;-66
2021/08/15 01:21:15;;;;;;;15.60;12.97;;;;;;;19.71;100.00;98224.09;5075431;28;20218;-65
2021/08/15 01:23:43;;;;;;;14.30;12.87;;;;;;;19.71;100.00;98220.56;5075536;28;20253;-65
2021/08/15 01:26:11;;;;;;;14.07;12.67;;;;;;;19.70;100.00;98225.06;5075135;28;20290;-65
2021/08/15 01:28:40;;;;;;;14.70;13.20;;;;;;;19.65;100.00;98227.41;5075526;28;20222;-65
2021/08/15 01:31:07;;;;;;;13.93;12.53;;;;;;;19.66;100.00;98217.50;5075335;28;20239;-65
2021/08/15 01:33:35;;;;;;;14.23;12.73;;;;;;;19.63;100.00;98215.16;5075358;28;20227;-65
2021/08/15 01:36:04;;;;;;;14.73;13.23;;;;;;;19.59;100.00;98214.66;5075359;28;20299;-65
2021/08/15 01:38:35;;;;;;;14.20;12.80;;;;;;;19.56;100.00;98209.59;5075388;28;20207;-65
2021/08/15 01:41:02;;;;;;;14.83;13.33;;;;;;;19.53;100.00;98209.91;5073574;28;20211;-65
2021/08/15 01:43:30;;;;;;;14.43;12.83;;;;;;;19.48;100.00;98212.22;5075004;28;20237;-65
2021/08/15 01:45:58;;;;;;;15.43;13.13;;;;;;;19.47;100.00;98209.69;5074796;28;20226;-65
2021/08/15 01:48:25;;;;;;;15.27;13.67;;;;;;;19.43;100.00;98211.88;5074792;28;20222;-65
2021/08/15 01:50:51;;;;;;;14.43;12.93;;;;;;;19.41;100.00;98203.16;5074934;28;20231;-65
2021/08/15 01:53:20;;;;;;;14.87;13.30;;;;;;;19.41;100.00;98208.50;5074723;28;20677;-65
2021/08/15 01:55:48;;;;;;;14.80;13.23;;;;;;;19.40;100.00;98209.53;5075019;28;20207;-65
2021/08/15 01:58:15;;;;;;;14.87;13.37;;;;;;;19.39;100.00;98210.50;5074874;28;20212;-65
2021/08/15 02:00:43;;;;;;;15.20;13.60;;;;;;;19.40;100.00;98205.97;5074564;28;20211;-65
2021/08/15 02:03:12;;;;;;;15.43;13.83;;;;;;;19.37;100.00;98201.78;5074763;28;20216;-65
2021/08/15 02:05:40;;;;;;;14.63;13.13;;;;;;;19.41;100.00;98200.47;5074830;28;20207;-65
2021/08/15 02:08:07;;;;;;;15.90;14.20;;;;;;;19.39;100.00;98207.81;5073086;28;20215;-65
2021/08/15 02:10:33;;;;;;;14.90;13.40;;;;;;;19.41;100.00;98207.66;5074543;28;20234;-65
2021/08/15 02:13:01;;;;;;;15.80;14.10;;;;;;;19.37;100.00;98209.81;5074580;28;20207;-65
2021/08/15 02:15:28;;;;;;;15.67;14.00;;;;;;;19.40;100.00;98219.38;5074374;28;20569;-65
2021/08/15 02:17:54;;;;;;;16.20;14.50;;;;;;;19.38;100.00;98203.44;5074243;28;20223;-65
2021/08/15 02:20:22;;;;;;;15.73;13.67;;;;;;;19.40;100.00;98209.53;5074645;28;20207;-65
2021/08/15 02:22:49;;;;;;;16.23;14.57;;;;;;;19.35;100.00;98203.78;5074483;28;20211;-65
2021/08/15 02:25:18;;;;;;;16.73;14.93;;;;;;;19.31;100.00;98209.59;5074362;28;20207;-65
2021/08/15 02:27:45;;;;;;;14.97;13.37;;;;;;;19.20;100.00;98216.06;5074033;28;20203;-65
2021/08/15 02:30:14;;;;;;;15.53;13.93;;;;;;;19.12;100.00;98207.09;5074186;28;20239;-65
2021/08/15 02:32:41;;;;;;;15.70;13.87;;;;;;;19.09;100.00;98213.59;5072214;28;20326;-65
2021/08/15 02:35:09;;;;;;;14.60;13.10;;;;;;;19.06;100.00;98208.59;5074261;28;20246;-65
2021/08/15 02:37:38;;;;;;;15.23;13.63;;;;;;;19.03;100.00;98203.53;5074063;28;20219;-65
2021/08/15 02:40:06;;;;;;;16.07;14.47;;;;;;;18.96;100.00;98202.47;5073689;28;20217;-65
2021/08/15 02:42:35;;;;;;;16.40;14.77;;;;;;;18.96;100.00;98204.31;5073666;28;20218;-65
2021/08/15 02:45:01;;;;;;;17.43;15.00;;;;;;;18.93;100.00;98208.16;5073933;28;20218;-65
2021/08/15 02:47:28;;;;;;;16.90;15.10;;;;;;;18.95;100.00;98208.81;5073840;28;20311;-65
2021/08/15 02:49:54;;;;;;;16.53;14.93;;;;;;;18.96;100.00;98210.50;5073406;28;20719;-65
2021/08/15 02:52:21;;;;;;;15.90;14.40;;;;;;;18.93;100.00;98210.84;5073891;28;20211;-65
2021/08/15 02:54:49;;;;;;;17.40;15.60;;;;;;;18.93;100.00;98212.66;5073067;28;20216;-65
2021/08/15 02:57:15;;;;;;;17.53;15.77;;;;;;;18.94;100.00;98214.34;5073687;28;20203;-65
2021/08/15 02:59:41;;;;;;;17.20;15.40;;;;;;;18.95;100.00;98206.16;5071010;28;20218;-65
2021/08/15 03:02:08;;;;;;;16.27;14.57;;;;;;;18.94;100.00;98204.47;5073265;28;20696;-65
2021/08/15 03:04:35;;;;;;;17.00;15.10;;;;;;;18.91;100.00;98210.13;5073447;28;20669;-65
2021/08/15 03:07:02;;;;;;;16.07;14.37;;;;;;;18.90;100.00;98199.59;5073250;28;20214;-65
2021/08/15 03:09:29;;;;;;;17.13;15.37;;;;;;;18.89;100.00;98201.41;5073111;28;20203;-65
2021/08/15 03:11:56;;;;;;;18.20;16.37;;;;;;;18.96;100.00;98209.69;5073420;28;20203;-65
2021/08/15 03:14:23;;;;;;;18.57;16.57;;;;;;;18.94;100.00;98203.63;5073082;28;20669;-65
2021/08/15 03:16:50;;;;;;;17.93;16.10;;;;;;;18.99;100.00;98201.31;5073378;28;20211;-65
2021/08/15 03:19:17;;;;;;;17.60;15.73;;;;;;;18.99;100.00;98199.50;5073422;28;20209;-65
2021/08/15 03:21:43;;;;;;;17.33;15.53;;;;;;;18.96;100.00;98197.13;5073304;28;20207;-65
2021/08/15 03:24:10;;;;;;;16.73;15.03;;;;;;;18.94;100.00;98196.44;5073452;28;20215;-65
2021/08/15 03:26:38;;;;;;;16.27;14.57;;;;;;;18.94;100.00;98199.13;5071539;28;20245;-65
2021/08/15 03:29:06;;;;;;;16.47;14.40;;;;;;;18.93;100.00;98202.78;5073204;28;20212;-65
2021/08/15 03:31:33;;;;;;;15.47;13.87;;;;;;;18.90;100.00;98194.25;5072997;28;20238;-65
2021/08/15 03:33:59;;;;;;;15.27;13.70;;;;;;;18.94;100.00;98201.78;5073140;28;20231;-65
2021/08/15 03:36:26;;;;;;;16.50;14.33;;;;;;;18.96;100.00;98191.75;5073124;28;20215;-65
2021/08/15 03:38:53;;;;;;;15.13;13.63;;;;;;;18.96;100.00;98191.75;5073121;28;20230;-65
2021/08/15 03:41:19;;;;;;;17.03;14.17;;;;;;;18.93;100.00;98185.88;5073148;28;20211;-65
2021/08/15 03:43:46;;;;;;;15.00;13.50;;;;;;;18.91;100.00;98178.00;5073135;28;20290;-65
2021/08/15 03:46:13;;;;;;;14.47;12.93;;;;;;;18.88;100.00;98182.81;5073028;28;20211;-65
2021/08/15 03:48:40;;;;;;;15.57;13.50;;;;;;;18.89;100.00;98185.34;5073000;28;20214;-65
2021/08/15 03:51:06;;;;;;;15.10;13.43;;;;;;;18.87;100.00;98192.72;5071198;28;20227;-65
2021/08/15 03:53:33;;;;;;;14.87;13.30;;;;;;;18.87;100.00;98187.34;5072941;28;20212;-65
2021/08/15 03:55:59;;;;;;;14.33;12.93;;;;;;;18.88;100.00;98181.00;5072935;28;20218;-65
2021/08/15 03:58:28;;;;;;;13.60;12.20;;;;;;;18.90;100.00;98181.66;5073021;28;20218;-65
2021/08/15 04:00:54;;;;;;;14.27;12.77;;;;;;;18.91;100.00;98172.63;5072626;28;20677;-65
2021/08/15 04:03:22;;;;;;;13.63;12.20;;;;;;;18.83;100.00;98169.91;5072643;28;20233;-65
2021/08/15 04:05:49;;;;;;;14.30;12.47;;;;;;;18.74;100.00;98180.72;5072892;28;20211;-65
2021/08/15 04:08:16;;;;;;;16.77;12.77;;;;;;;18.68;100.00;98175.97;5073030;28;20221;-65
2021/08/15 04:10:43;;;;;;;14.77;13.07;;;;;;;18.60;100.00;98168.72;5075349;28;20227;-65
2021/08/15 04:13:10;;;;;;;14.70;13.13;;;;;;;18.62;100.00;98174.78;5076499;28;20685;-65
2021/08/15 04:15:36;;;;;;;15.33;13.60;;;;;;;18.56;100.00;98167.34;5076478;28;20685;-65
2021/08/15 04:18:03;;;;;;;15.47;13.70;;;;;;;18.50;100.00;98165.31;5075058;28;20207;-65
2021/08/15 04:20:31;;;;;;;14.83;13.33;;;;;;;18.50;100.00;98167.97;5076669;28;20214;-65
2021/08/15 04:22:57;;;;;;;16.33;14.57;;;;;;;18.52;100.00;98165.97;5076719;28;20214;-65
2021/08/15 04:25:23;;;;;;;16.70;14.97;;;;;;;18.49;100.00;98166.31;5076336;28;20669;-65
2021/08/15 04:27:50;;;;;;;16.57;14.57;;;;;;;18.38;100.00;98166.53;5076575;28;20206;-65
2021/08/15 04:30:16;;;;;;;17.33;15.50;;;;;;;18.32;100.00;98159.13;5076204;28;20238;-65
2021/08/15 04:32:43;;;;;;;16.13;14.43;;;;;;;18.28;100.00;98168.41;5076531;28;20211;-65
2021/08/15 04:35:10;;;;;;;17.07;15.37;;;;;;;18.25;100.00;98163.38;5075996;28;20242;-65
2021/08/15 04:37:38;;;;;;;16.33;14.63;;;;;;;18.27;100.00;98166.72;5076264;28;20224;-65
2021/08/15 04:40:05;;;;;;;17.77;15.47;;;;;;;18.28;100.00;98162.22;5076451;28;20218;-65
2021/08/15 04:42:32;;;;;;;17.57;15.50;;;;;;;18.30;100.00;98166.41;5075254;28;20215;-65
2021/08/15 04:44:58;;;;;;;16.07;14.53;;;;;;;18.35;100.00;98161.47;5075891;28;20226;-64
2021/08/15 04:47:25;;;;;;;18.17;15.20;;;;;;;18.40;100.00;98167.19;5076315;28;20211;-65
2021/08/15 04:49:51;;;;;;;19.57;16.00;;;;;;;18.49;100.00;98166.31;5075895;28;20207;-65
2021/08/15 04:52:17;;;;;;;17.67;15.47;;;;;;;18.55;100.00;98164.81;5076102;28;20226;-65
2021/08/15 04:54:45;;;;;;;17.20;15.50;;;;;;;18.64;100.00;98171.91;5075757;28;20220;-65
2021/08/15 04:57:12;;;;;;;18.50;16.60;;;;;;;18.71;100.00;98171.16;5075862;28;20583;-65
2021/08/15 04:59:38;;;;;;;18.03;16.13;;;;;;;18.73;100.00;98177.22;5075777;28;20211;-65
2021/08/15 05:02:05;;;;;;;17.23;15.50;;;;;;;18.80;100.00;98172.91;5075766;28;20206;-65
2021/08/15 05:04:31;;;;;;;17.87;16.07;;;;;;;18.87;100.00;98183.81;5075868;28;20215;-65
2021/08/15 05:06:58;;;;;;;17.70;15.87;;;;;;;18.92;100.00;98185.06;5075614;28;20211;-65
2021/08/15 05:09:24;;;;;;;18.17;16.30;;;;;;;18.99;100.00;98175.38;5073944;28;20679;-65
2021/08/15 05:11:52;;;;;;;17.30;15.23;;;;;;;19.08;100.00;98179.78;5075610;28;20235;-65
2021/08/15 05:14:18;;;;;;;18.53;14.80;;;;;;;19.18;100.00;98179.69;5075621;28;20211;-65
2021/08/15 05:16:45;;;;;;;17.10;15.40;;;;;;;19.29;100.00;98191.03;5075488;28;20218;-65
2021/08/15 05:19:11;;;;;;;18.37;15.80;;;;;;;19.34;100.00;98191.38;5075737;28;20555;-65
2021/08/15 05:21:38;;;;;;;17.03;15.23;;;;;;;19.35;100.00;98182.34;5074537;28;20703;-65
2021/08/15 05:24:05;;;;;;;17.20;15.50;;;;;;;19.37;100.00;98191.06;5075808;28;20207;-65
2021/08/15 05:26:32;;;;;;;17.87;15.77;;;;;;;19.42;100.00;98188.75;5075524;28;20707;-65
2021/08/15 05:28:59;;;;;;;16.87;15.07;;;;;;;19.40;100.00;98185.41;5075203;28;20215;-65
2021/08/15 05:31:26;;;;;;;17.47;15.67;;;;;;;19.45;100.00;98185.72;5074946;28;20227;-65
2021/08/15 05:33:52;;;;;;;15.87;14.30;;;;;;;19.52;100.00;98188.63;5075020;28;20669;-65
2021/08/15 05:36:19;;;;;;;16.73;15.03;;;;;;;19.63;100.00;98202.56;5073840;28;20216;-65
2021/08/15 05:38:45;;;;;;;17.43;14.57;;;;;;;19.82;100.00;98196.97;5075137;28;20219;-65
2021/08/15 05:41:11;;;;;;;15.70;14.10;;;;;;;20.07;100.00;98196.09;5075241;28;20207;-65
2021/08/15 05:43:38;;;;;;;16.60;14.87;;;;;;;20.36;100.00;98191.09;5075194;28;20207;-65
2021/08/15 05:46:06;;;;;;;16.13;14.43;;;;;;;20.72;100.00;98187.13;5074918;28;20207;-65
2021/08/15 05:48:32;;;;;;;16.40;14.53;;;;;;;20.97;100.00;98196.88;5074718;28;20677;-65
2021/08/15 05:51:01;;;;;;;15.17;13.67;;;;;;;21.17;100.00;98198.22;5074889;28;20231;-65
2021/08/15 05:53:27;;;;;;;15.40;13.83;;;;;;;21.44;100.00;98189.75;5074913;28;20605;-65
2021/08/15 05:55:54;;;;;;;15.27;13.77;;;;;;;21.68;100.00;98191.53;5074802;28;20222;-65
2021/08/15 05:58:20;;;;;;;14.00;12.67;;;;;;;21.66;100.00;98194.41;5074768;28;20214;-65
2021/08/15 06:00:48;;;;;;;14.50;12.97;;;;;;;21.61;100.00;98191.38;5073129;28;20227;-65
2021/08/15 06:03:16;;;;;;;16.70;14.10;;;;;;;22.30;100.00;98194.09;5074985;28;20580;-65
2021/08/15 06:05:43;;;;;;;14.87;12.97;;;;;;;23.34;99.23;98187.91;5074877;28;20208;-65
2021/08/15 06:08:09;;;;;;;14.87;13.37;;;;;;;24.18;92.33;98185.59;5074507;28;20211;-65
2021/08/15 06:10:37;;;;;;;15.30;13.70;;;;;;;24.79;88.06;98176.94;5074592;28;20593;-65
2021/08/15 06:13:04;;;;;;;15.53;13.27;;;;;;;25.24;84.13;98179.22;5074163;28;20215;-65
2021/08/15 06:15:30;;;;;;;14.70;13.20;;;;;;;25.74;80.58;98187.06;5074453;28;20203;-65
2021/08/15 06:17:56;;;;;;;14.13;12.73;;;;;;;26.08;78.97;98188.94;5074545;28;20234;-65
2021/08/15 06:20:24;;;;;;;15.03;13.37;;;;;;;25.98;78.19;98189.28;5074685;28;20212;-65
2021/08/15 06:22:51;;;;;;;14.07;12.40;;;;;;;25.68;79.78;98187.00;5074168;28;20204;-65
2021/08/15 06:25:18;;;;;;;14.93;13.30;;;;;;;25.49;80.36;98182.31;5074076;28;20695;-65
2021/08/15 06:27:44;;;;;;;13.73;12.27;;;;;;;25.56;80.36;98177.78;5072465;28;20665;-65
2021/08/15 06:30:12;;;;;;;13.57;12.17;;;;;;;25.67;79.44;98180.75;5074293;28;20215;-65
2021/08/15 06:32:45;;;;;;;12.47;11.37;;;;;;;25.35;80.30;98178.66;5074130;28;20238;-66
2021/08/15 06:35:11;;;;;;;13.20;11.97;;;;;;;24.93;82.70;98176.00;5073977;28;20227;-66
2021/08/15 06:37:39;;;;;;;13.30;11.90;;;;;;;24.50;85.17;98168.09;5073891;28;20215;-66
2021/08/15 06:40:07;;;;;;;12.97;11.77;;;;;;;24.21;87.14;98173.56;5074224;28;20208;-66
2021/08/15 06:42:33;;;;;;;14.50;13.10;;;;;;;23.99;88.35;98175.38;5073981;28;20215;-66
2021/08/15 06:44:59;;;;;;;14.43;12.93;;;;;;;23.82;89.66;98173.88;5074025;28;20204;-66
2021/08/15 06:47:26;;;;;;;13.83;12.43;;;;;;;23.63;90.63;98165.50;5073955;28;20207;-66
2021/08/15 06:49:52;;;;;;;13.50;12.10;;;;;;;23.54;91.54;98159.38;5073533;28;20212;-67
2021/08/15 06:52:19;;;;;;;15.03;13.47;;;;;;;23.49;92.09;98155.56;5073336;28;20711;-65
2021/08/15 06:54:47;;;;;;;15.47;13.90;;;;;;;23.45;93.83;98160.50;5072680;28;20207;-65
2021/08/15 06:57:14;;;;;;;15.13;13.63;;;;;;;23.41;94.93;98166.47;5073579;28;20669;-66
2021/08/15 06:59:40;;;;;;;15.63;13.97;;;;;;;23.30;95.49;98162.38;5073629;28;20298;-65
2021/08/15 07:02:07;;;;;;;15.87;14.23;;;;;;;23.17;96.20;98156.75;5073702;28;20632;-66
2021/08/15 07:04:33;;;;;;;14.60;13.20;;;;;;;23.22;96.76;98157.03;5073165;28;20219;-65
2021/08/15 07:07:00;;;;;;;14.90;13.47;;;;;;;23.30;96.18;98158.81;5073583;28;20203;-66
2021/08/15 07:09:26;;;;;;;16.53;14.77;;;;;;;23.40;95.33;98168.31;5073271;28;20302;-66
2021/08/15 07:11:54;;;;;;;16.27;14.60;;;;;;;23.41;94.98;98163.75;5073218;28;20231;-66
2021/08/15 07:14:21;;;;;;;16.30;14.40;;;;;;;23.46;93.94;98167.56;5073335;28;20211;-65
2021/08/15 07:16:47;;;;;;;16.90;14.80;;;;;;;23.59;92.95;98156.94;5073574;28;20601;-65
2021/08/15 07:19:14;;;;;;;15.50;13.90;;;;;;;23.54;92.49;98164.75;5071436;28;20696;-63
2021/08/15 07:21:40;;;;;;;16.43;14.77;;;;;;;23.65;91.64;98155.38;5069952;28;20211;-64
2021/08/15 07:24:07;;;;;;;17.37;14.70;;;;;;;23.68;89.76;98161.25;5072513;28;20211;-63
2021/08/15 07:26:33;;;;;;;15.37;13.83;;;;;;;23.71;89.83;98154.63;5073046;28;20673;-64
2021/08/15 07:29:01;;;;;;;15.03;13.57;;;;;;;23.63;90.33;98152.88;5073248;28;20212;-64
2021/08/15 07:31:28;;;;;;;16.57;14.90;;;;;;;23.61;91.47;98144.13;5073472;28;20231;-64
2021/08/15 07:33:54;;;;;;;14.80;13.40;;;;;;;23.66;91.68;98140.88;5073101;28;20255;-63
2021/08/15 07:36:21;;;;;;;15.93;12.60;;;;;;;23.76;92.43;98141.38;5072911;28;20207;-63
2021/08/15 07:38:47;;;;;;;16.03;14.33;;;;;;;23.91;89.57;98145.81;5073213;28;20211;-64
2021/08/15 07:41:13;;;;;;;14.03;12.50;;;;;;;23.96;89.92;98143.34;5072892;28;20211;-63
2021/08/15 07:43:40;;;;;;;14.40;12.90;;;;;;;24.05;87.45;98142.22;5072867;28;20218;-63
2021/08/15 07:46:13;;;;;;;13.67;12.40;;;;;;;24.12;87.20;98145.84;5070030;28;20214;-64
2021/08/15 07:48:40;;;;;;;14.37;12.63;;;;;;;24.25;87.21;98142.47;5072839;28;20268;-62
2021/08/15 07:51:07;;;;;;;14.20;12.80;;;;;;;24.40;86.24;98141.38;5072255;28;20234;-63
2021/08/15 07:53:33;;;;;;;14.33;12.70;;;;;;;24.49;86.08;98142.91;5072574;28;20246;-64
2021/08/15 07:56:00;;;;;;;14.07;12.67;;;;;;;24.53;85.58;98141.50;5072208;28;20218;-64
2021/08/15 07:58:27;;;;;;;13.00;11.73;;;;;;;24.68;84.87;98150.41;5072588;28;20214;-63
2021/08/15 08:00:54;;;;;;;13.90;12.60;;;;;;;24.78;84.56;98148.22;5072264;28;20211;-65
2021/08/15 08:03:22;;;;;;;13.40;11.90;;;;;;;24.91;84.35;98148.34;5072389;28;20215;-64
2021/08/15 08:05:49;;;;;;;14.90;12.83;;;;;;;25.05;83.59;98152.81;5072652;28;20237;-64
2021/08/15 08:08:16;;;;;;;14.00;12.50;;;;;;;25.11;81.44;98151.22;5072783;28;20207;-65
2021/08/15 08:10:44;;;;;;;13.37;11.83;;;;;;;25.17;82.72;98150.44;5072761;28;20216;-65
2021/08/15 08:13:11;;;;;;;13.73;12.33;;;;;;;25.21;81.62;98136.28;5070836;28;20243;-64
2021/08/15 08:15:39;;;;;;;13.60;12.20;;;;;;;25.34;81.09;98151.81;5072840;28;20215;-64
2021/08/15 08:18:06;;;;;;;13.80;12.50;;;;;;;25.41;79.68;98152.72;5072797;28;20585;-64
2021/08/15 08:20:35;;;;;;;12.93;11.63;;;;;;;25.46;79.04;98142.09;5072414;28;20215;-65
2021/08/15 08:23:02;;;;;;;12.47;10.97;;;;;;;25.50;77.96;98144.22;5072612;28;20265;-64
2021/08/15 08:25:29;;;;;;;14.10;12.67;;;;;;;25.64;77.92;98129.72;5072724;28;20208;-64
2021/08/15 08:27:55;;;;;;;14.77;13.17;;;;;;;25.76;76.00;98125.41;5072699;28;20207;-64
2021/08/15 08:30:22;;;;;;;14.43;12.93;;;;;;;25.71;76.24;98122.47;5072793;28;20215;-64
2021/08/15 08:32:48;;;;;;;13.23;11.83;;;;;;;25.66;77.16;98129.53;5072222;28;20739;-64
2021/08/15 08:35:15;;;;;;;13.87;12.57;;;;;;;25.73;76.92;98114.97;5072672;28;20714;-65
2021/08/15 08:37:44;;;;;;;14.27;12.30;;;;;;;25.65;76.65;98127.84;5070690;28;20215;-65
2021/08/15 08:40:13;;;;;;;14.10;12.67;;;;;;;25.65;76.38;98117.84;5072463;28;20211;-66
2021/08/15 08:42:39;;;;;;;16.13;14.43;;;;;;;25.70;76.68;98120.81;5072164;28;20220;-66
2021/08/15 08:45:06;;;;;;;16.80;14.07;;;;;;;25.57;77.85;98120.75;5072570;28;20208;-66
2021/08/15 08:47:33;;;;;;;12.73;11.43;;;;;;;25.73;77.31;98117.69;5072406;28;20207;-66
2021/08/15 08:50:00;;;;;;;14.87;11.90;;;;;;;25.93;75.99;98115.94;5072515;28;20223;-66
2021/08/15 08:52:29;;;;;;;13.70;12.30;;;;;;;26.03;75.53;98110.16;5072459;28;20228;-66
2021/08/15 08:54:58;;;;;;;12.87;11.57;;;;;;;26.12;77.04;98109.75;5072573;28;20265;-66
2021/08/15 08:57:24;;;;;;;14.27;11.90;;;;;;;26.29;75.21;98108.34;5074145;28;20215;-66
2021/08/15 08:59:51;;;;;;;13.40;12.10;;;;;;;26.43;74.71;98107.31;5075984;28;20208;-66
2021/08/15 09:02:17;;;;;;;15.50;12.80;;;;;;;26.47;73.39;98108.59;5075568;28;20207;-66
2021/08/15 09:04:44;;;;;;;12.47;11.10;;;;;;;26.54;73.91;98098.63;5074331;28;20203;-64
2021/08/15 09:07:12;;;;;;;12.93;11.60;;;;;;;26.52;73.54;98100.66;5075580;28;20688;-64
2021/08/15 09:09:41;;;;;;;13.37;11.97;;;;;;;26.61;72.39;98098.59;5075589;28;20215;-65
2021/08/15 09:12:09;;;;;;;11.77;10.63;;;;;;;26.67;73.25;98093.22;5075389;28;20716;-64
2021/08/15 09:14:35;;;;;;;12.35;11.05;;;;;;;26.85;71.69;98088.00;5075708;28;20217;-64
2021/08/15 09:17:04;;;;;;;13.07;11.67;;;;;;;26.92;71.10;98087.97;5075409;28;20683;-65
2021/08/15 09:19:33;;;;;;;12.70;11.17;;;;;;;26.98;69.98;98084.44;5075697;28;20218;-65
2021/08/15 09:22:15;;;;;;;11.93;10.73;;;;;;;27.13;70.04;98085.88;5075708;28;20370;-65
2021/08/15 09:24:50;;;;;;;12.23;10.48;;;;;;;27.28;68.68;98070.22;5075585;28;20213;-65
2021/08/15 09:27:24;;;;;;;11.45;10.35;;;;;;;27.31;66.70;98072.50;5075539;28;20207;-65
2021/08/15 09:30:12;;;;;;;11.13;10.13;;;;;;;27.27;67.35;98074.00;5073790;28;20230;-65
2021/08/15 09:32:42;;;;;;;11.52;10.43;;;;;;;27.40;65.94;98065.81;5075514;28;20265;-65
2021/08/15 09:35:10;;;;;;;11.63;9.80;;;;;;;27.51;67.32;98063.25;5075213;28;20628;-65
2021/08/15 09:37:37;;;;;;;11.60;10.50;;;;;;;27.71;65.07;98064.00;5075337;28;20211;-65
2021/08/15 09:40:22;;;;;;;15.27;10.85;;;;;;;27.68;64.81;98060.91;5075314;28;20203;-65
2021/08/15 09:42:50;;;;;;;11.63;10.38;;;;;;;27.67;65.19;98065.50;5075029;28;20207;-65
2021/08/15 09:45:18;;;;;;;11.27;10.13;;;;;;;27.76;64.37;98057.97;5075036;28;20672;-65
2021/08/15 09:47:45;;;;;;;11.13;10.13;;;;;;;27.87;65.56;98054.56;5075229;28;20242;-65
2021/08/15 09:50:19;;;;;;;10.80;9.80;;;;;;;28.01;66.07;98053.47;5075086;28;20222;-65
2021/08/15 09:52:46;;;;;;;10.55;9.38;;;;;;;28.13;64.57;98051.75;5075029;28;20230;-65
2021/08/15 09:55:13;;;;;;;10.60;9.60;;;;;;;28.22;64.26;98044.97;5073244;28;20203;-65
2021/08/15 09:57:42;;;;;;;11.32;9.93;;;;;;;28.09;63.46;98048.63;5074999;28;20211;-65
2021/08/15 10:00:34;;;;;;;11.57;10.38;;;;;;;28.32;62.29;98042.63;5075052;28;20207;-66
2021/08/15 10:03:03;;;;;;;10.20;9.27;;;;;;;28.37;62.75;98038.22;5074796;28;20215;-66
2021/08/15 10:05:29;;;;;;;10.90;9.80;;;;;;;28.54;65.95;98046.66;5074833;28;20219;-66
2021/08/15 10:07:56;;;;;;;11.20;10.10;;;;;;;28.64;65.61;98045.13;5074031;28;20711;-66
2021/08/15 10:10:23;;;;;;;11.55;10.38;;;;;;;28.74;64.78;98045.44;5074642;28;20219;-66
2021/08/15 10:12:49;;;;;;;11.00;9.90;;;;;;;28.92;63.29;98050.13;5074545;28;20600;-66
2021/08/15 10:15:18;;;;;;;11.73;10.63;;;;;;;28.95;63.57;98044.25;5074500;28;20309;-66
2021/08/15 10:17:46;;;;;;;11.13;10.10;;;;;;;29.00;61.56;98042.53;5074490;28;20218;-66
2021/08/15 10:20:20;;;;;;;10.70;9.60;;;;;;;29.12;61.83;98045.34;5074586;28;20222;-66
2021/08/15 10:22:48;;;;;;;11.15;10.00;;;;;;;29.23;59.97;98031.81;5072497;28;20218;-65
2021/08/15 10:25:33;;;;;;;13.82;10.57;;;;;;;29.50;58.71;98035.06;5074311;28;20218;-65
2021/08/15 10:28:01;;;;;;;11.57;10.48;;;;;;;29.79;59.18;98037.91;5074009;28;20652;-65
2021/08/15 10:30:46;;;;;;;11.07;10.07;;;;;;;30.08;58.75;98025.34;5074144;28;20207;-67
2021/08/15 10:33:18;;;;;;;11.18;10.18;;;;;;;30.34;57.38;98027.69;5074034;28;20231;-65
2021/08/15 10:35:44;;;;;;;10.93;9.82;;;;;;;30.39;57.06;98022.38;5074467;28;20577;-67
2021/08/15 10:38:31;;;;;;;11.20;10.20;;;;;;;30.29;56.75;98013.94;5074030;28;20598;-65
2021/08/15 10:40:58;;;;;;;10.75;9.77;;;;;;;30.32;56.64;98013.47;5073710;28;20211;-64
2021/08/15 10:44:06;;;;;;;11.02;10.02;;;;;;;30.28;55.08;98004.09;5073928;28;20298;-65
2021/08/15 10:46:35;;;;;;;12.02;10.27;;;;;;;30.34;57.10;98003.16;5074067;28;20233;-65
2021/08/15 10:49:04;;;;;;;11.38;9.90;;;;;;;30.30;57.42;97996.50;5072100;28;20718;-65
2021/08/15 10:51:48;;;;;;;11.10;10.10;;;;;;;30.32;57.48;98002.56;5073999;28;20211;-65
2021/08/15 10:54:59;;;;;;;11.15;10.07;;;;;;;30.47;57.03;98005.66;5073953;28;20207;-65
2021/08/15 10:57:49;;;;;;;11.27;10.07;;;;;;;30.65;55.24;98006.44;5073573;28;20211;-65
2021/08/15 11:00:44;;;;;;;11.50;10.32;;;;;;;30.88;54.87;98016.56;5073461;28;20661;-65
2021/08/15 11:03:38;;;;;;;10.90;9.75;;;;;;;30.88;54.08;98006.44;5073754;28;20219;-65
2021/08/15 11:06:24;;;;;;;12.88;10.50;;;;;;;30.81;53.51;97999.47;5073643;28;20214;-65
2021/08/15 11:08:55;;;;;;;11.20;10.05;;;;;;;30.62;55.12;98006.88;5073399;28;20210;-65
2021/08/15 11:11:30;;;;;;;11.10;10.02;;;;;;;30.35;54.62;98002.09;5073288;28;20212;-65
2021/08/15 11:14:25;;;;;;;10.93;9.93;;;;;;;29.97;56.17;97998.84;5071727;28;20230;-65
2021/08/15 11:16:55;;;;;;;11.27;10.20;;;;;;;29.71;57.76;97985.59;5073663;28;20212;-65
2021/08/15 11:19:33;;;;;;;11.07;9.98;;;;;;;29.47;57.52;97973.72;5072615;28;20215;-65